Time;durP1;ratioP1;P1;durP2;ratioP2;P2;SDS_P1;SDS_P2;PMS_P1;PMS_P2;Temp;Humidity;BMP_temperature;BMP_pressure;BME280_temperature;BME280_humidity;BME280_pressure;Samples;Min_cycle;Max_cycle;Signal;HPM_P1;HPM_P2
2023/04/15 00:00:11;;;;;;;5.63;1.93;;;2.10;1.00;2.40;93038.00;;;;7400695;19;20196;-76
2023/04/15 00:02:45;;;;;;;6.53;2.33;;;2.10;1.00;2.40;93089.00;;;;7399580;19;20169;-77
2023/04/15 00:05:12;;;;;;;2.90;1.83;;;2.10;1.00;2.30;93057.00;;;;7399277;19;20154;-74
2023/04/15 00:07:46;;;;;;;6.47;2.27;;;2.10;1.00;2.30;93104.00;;;;7401187;19;20469;-76
2023/04/15 00:10:27;;;;;;;5.90;2.10;;;2.10;1.00;2.30;93081.00;;;;7399689;19;20600;-76
2023/04/15 00:13:08;;;;;;;9.50;2.23;;;2.10;1.00;2.20;93046.00;;;;7400707;19;20141;-74
2023/04/15 00:15:42;;;;;;;7.53;1.97;;;2.00;1.00;2.20;93076.00;;;;7400099;19;20133;-75
2023/04/15 00:18:16;;;;;;;3.57;1.83;;;2.00;1.00;2.30;93059.00;;;;7400634;19;20140;-74
2023/04/15 00:20:51;;;;;;;6.47;2.10;;;2.00;1.00;2.30;93084.00;;;;7400448;19;20152;-75
2023/04/15 00:23:18;;;;;;;7.97;2.00;;;1.90;15.60;2.30;93045.00;;;;7400785;19;20645;-74
2023/04/15 00:25:54;;;;;;;5.00;1.90;;;1.90;44.90;2.30;93057.00;;;;7395289;19;20144;-76
2023/04/15 00:28:21;;;;;;;4.40;1.70;;;1.90;99.90;2.40;93032.00;;;;7400574;19;20160;-77
2023/04/15 00:30:55;;;;;;;8.33;2.10;;;1.90;99.90;2.40;93101.00;;;;7401854;19;20133;-75
2023/04/15 00:33:22;;;;;;;5.43;1.97;;;1.90;99.90;2.40;93047.00;;;;7400873;19;20148;-75
2023/04/15 00:35:56;;;;;;;6.67;2.60;;;1.90;99.90;2.40;93058.00;;;;7400794;19;21051;-75
2023/04/15 00:38:23;;;;;;;8.97;2.30;;;1.90;99.90;2.40;93064.00;;;;7400299;19;20502;-74
2023/04/15 00:40:57;;;;;;;8.00;2.30;;;1.90;99.90;2.30;93061.00;;;;7401044;19;20231;-77
2023/04/15 00:43:31;;;;;;;7.17;2.30;;;1.90;99.90;2.20;93017.00;;;;7387593;19;20169;-76
2023/04/15 00:46:06;;;;;;;5.50;2.07;;;1.90;99.90;2.30;93079.00;;;;7399639;19;20137;-74
2023/04/15 00:48:41;;;;;;;7.40;3.13;;;1.90;99.90;2.30;93019.00;;;;7400265;19;20148;-74
2023/04/15 00:51:15;;;;;;;5.10;2.03;;;1.90;99.90;2.30;93045.00;;;;7400209;19;20163;-74
2023/04/15 00:53:42;;;;;;;7.40;2.07;;;1.90;99.90;2.20;93036.00;;;;7399749;19;20141;-74
2023/04/15 00:56:17;;;;;;;7.30;2.50;;;1.80;99.90;2.30;93070.00;;;;7399044;19;20607;-74
2023/04/15 00:58:45;;;;;;;5.50;2.00;;;1.80;99.90;2.30;93048.00;;;;7399427;19;20137;-75
2023/04/15 01:01:21;;;;;;;6.30;2.03;;;1.80;99.90;2.30;93072.00;;;;7398802;19;20145;-77
2023/04/15 01:04:03;;;;;;;5.43;2.10;;;1.80;99.90;2.30;92902.00;;;;7397121;19;20195;-79
2023/04/15 01:06:37;;;;;;;4.97;1.93;;;1.80;99.90;2.20;92894.00;;;;7403728;19;20502;-80
2023/04/15 01:09:06;;;;;;;5.83;1.90;;;1.80;99.90;2.30;92936.00;;;;7402156;19;20155;-81
2023/04/15 01:11:39;;;;;;;5.57;1.80;;;1.80;99.90;2.40;92888.00;;;;7401170;19;20176;-80
2023/04/15 01:14:13;;;;;;;6.17;2.27;;;1.90;99.90;2.40;92999.00;;;;7401488;19;20149;-80
2023/04/15 01:16:47;;;;;;;4.77;2.10;;;1.90;99.90;2.40;92972.00;;;;7401437;19;20141;-79
2023/04/15 01:19:16;;;;;;;6.67;1.87;;;1.90;99.90;2.40;92978.00;;;;7397887;19;20488;-80
2023/04/15 01:21:51;;;;;;;5.47;1.90;;;1.90;99.90;2.50;92837.00;;;;7400177;19;20140;-80
2023/04/15 01:24:18;;;;;;;6.00;2.23;;;2.00;99.90;2.50;92849.00;;;;7397154;19;20137;-80
2023/04/15 01:26:52;;;;;;;2.67;2.10;;;2.00;99.90;2.50;92814.00;;;;7400252;19;20137;-81
2023/04/15 01:29:20;;;;;;;5.03;2.00;;;2.00;99.90;2.50;93028.00;;;;7398419;19;20212;-82
2023/04/15 01:31:58;;;;;;;4.23;2.00;;;2.00;88.80;2.50;92894.00;;;;7399519;19;20149;-80
2023/04/15 01:34:32;;;;;;;5.07;1.80;;;2.10;74.80;2.60;92904.00;;;;7399054;19;20498;-81
2023/04/15 01:37:07;;;;;;;7.13;1.73;;;2.10;38.20;2.60;92809.00;;;;7397574;19;20140;-81
2023/04/15 01:39:36;;;;;;;4.03;2.03;;;2.20;17.30;2.70;92875.00;;;;7400076;19;20503;-80
2023/04/15 01:42:13;;;;;;;4.37;2.17;;;2.20;10.40;2.70;92817.00;;;;7397417;19;20145;-80
2023/04/15 01:44:41;;;;;;;5.70;1.80;;;2.20;1.00;2.70;93051.00;;;;7395231;19;20275;-80
2023/04/15 01:47:15;;;;;;;3.43;1.67;;;2.30;1.00;2.80;92877.00;;;;7400769;19;20149;-82
2023/04/15 01:49:49;;;;;;;3.20;1.67;;;2.30;1.00;2.50;93018.00;;;;7400071;19;20133;-81
2023/04/15 01:52:23;;;;;;;6.73;1.80;;;2.30;1.00;2.40;92959.00;;;;7400248;19;20588;-80
2023/04/15 01:54:57;;;;;;;6.17;2.33;;;2.20;1.00;2.50;92852.00;;;;7400598;19;20144;-81
2023/04/15 01:57:31;;;;;;;6.00;1.87;;;2.20;1.00;2.40;92898.00;;;;7398655;19;20160;-81
2023/04/15 02:00:07;;;;;;;5.53;1.80;;;2.10;1.00;2.50;93046.00;;;;7392127;19;20196;-78
2023/04/15 02:02:50;;;;;;;4.70;1.70;;;2.10;1.00;2.40;93050.00;;;;7396292;19;20781;-78
2023/04/15 02:05:17;;;;;;;4.77;1.77;;;2.10;1.00;2.60;93018.00;;;;7395092;19;20634;-77
2023/04/15 02:07:51;;;;;;;5.47;1.80;;;2.10;1.00;2.50;93030.00;;;;7396650;19;20605;-77
2023/04/15 02:10:18;;;;;;;8.53;1.77;;;2.00;1.00;2.50;93032.00;;;;7395499;19;20137;-77
2023/04/15 02:12:53;;;;;;;3.87;1.77;;;2.00;1.00;2.60;93020.00;;;;7396346;19;20147;-78
2023/04/15 02:15:20;;;;;;;5.13;1.90;;;2.00;1.00;2.50;93031.00;;;;7396675;19;20488;-78
2023/04/15 02:17:54;;;;;;;5.03;2.17;;;2.10;1.00;2.50;93045.00;;;;7393848;19;20129;-78
2023/04/15 02:20:29;;;;;;;5.37;1.77;;;2.10;1.00;2.50;93025.00;;;;7396400;19;20464;-78
2023/04/15 02:22:58;;;;;;;7.67;2.20;;;2.00;1.00;2.50;93021.00;;;;7397283;19;20125;-75
2023/04/15 02:25:32;;;;;;;5.43;1.80;;;2.00;1.00;2.20;93048.00;;;;7392894;19;20177;-74
2023/04/15 02:27:59;;;;;;;6.10;1.70;;;2.00;1.00;2.40;93051.00;;;;7394737;19;20136;-76
2023/04/15 02:30:33;;;;;;;6.20;2.30;;;2.00;1.00;2.40;93029.00;;;;7395343;19;20129;-77
2023/04/15 02:33:00;;;;;;;6.10;1.67;;;1.90;1.00;2.40;93048.00;;;;7396068;19;20632;-77
2023/04/15 02:35:35;;;;;;;6.60;1.40;;;1.90;1.00;2.40;93044.00;;;;7395928;19;20133;-77
2023/04/15 02:38:10;;;;;;;7.00;1.80;;;1.90;1.00;2.40;93009.00;;;;7397123;19;20128;-77
2023/04/15 02:40:37;;;;;;;6.77;1.73;;;1.90;1.00;2.30;93040.00;;;;7394002;19;20436;-77
2023/04/15 02:43:11;;;;;;;5.00;1.47;;;1.90;1.00;2.30;93049.00;;;;7392298;19;20465;-77
2023/04/15 02:45:38;;;;;;;4.90;1.40;;;1.90;1.00;2.40;93029.00;;;;7394781;19;20588;-77
2023/04/15 02:48:12;;;;;;;7.80;1.80;;;1.90;1.00;2.30;93044.00;;;;7400154;19;20144;-77
2023/04/15 02:50:46;;;;;;;3.87;1.27;;;1.90;1.00;2.30;93052.00;;;;7402486;19;20125;-77
2023/04/15 02:53:20;;;;;;;5.67;2.00;;;1.90;1.00;2.30;93047.00;;;;7402224;19;20132;-77
2023/04/15 02:55:47;;;;;;;5.30;1.80;;;1.80;1.00;2.30;93025.00;;;;7403343;19;20139;-77
2023/04/15 02:58:21;;;;;;;8.43;2.00;;;1.90;1.00;2.20;93013.00;;;;7402713;19;20214;-77
2023/04/15 03:01:08;;;;;;;4.60;2.07;;;1.90;1.00;2.20;93026.00;;;;7401091;19;20189;-75
2023/04/15 03:03:35;;;;;;;7.07;1.60;;;1.90;1.00;2.40;93034.00;;;;7399330;19;20196;-75
2023/04/15 03:06:09;;;;;;;5.40;1.80;;;1.90;1.00;2.20;93057.00;;;;7401292;19;20137;-76
2023/04/15 03:08:43;;;;;;;5.03;1.70;;;1.90;1.00;2.10;93035.00;;;;7401916;19;20165;-76
2023/04/15 03:11:18;;;;;;;4.97;1.67;;;1.90;1.00;2.20;93048.00;;;;7402629;19;20124;-76
2023/04/15 03:13:52;;;;;;;6.30;1.77;;;1.90;1.00;2.20;93055.00;;;;7402165;19;20628;-76
2023/04/15 03:16:19;;;;;;;8.10;1.67;;;1.80;1.00;2.20;93031.00;;;;7401557;19;20607;-76
2023/04/15 03:18:53;;;;;;;3.63;1.33;;;1.80;1.00;2.10;93051.00;;;;7401367;19;20144;-76
2023/04/15 03:21:27;;;;;;;6.43;1.77;;;1.80;1.00;2.10;93056.00;;;;7403171;19;20152;-76
2023/04/15 03:24:01;;;;;;;10.03;1.90;;;1.70;1.00;2.10;93050.00;;;;7401532;19;20207;-76
2023/04/15 03:26:30;;;;;;;4.87;1.60;;;1.70;1.00;2.00;93033.00;;;;7400217;19;20132;-76
2023/04/15 03:29:04;;;;;;;9.60;1.90;;;1.70;1.00;2.10;93046.00;;;;7400769;19;20141;-75
2023/04/15 03:31:31;;;;;;;6.07;1.70;;;1.70;21.70;2.00;93055.00;;;;7401809;19;20619;-75
2023/04/15 03:34:05;;;;;;;3.07;2.00;;;1.60;41.00;2.10;93044.00;;;;7400846;19;20133;-75
2023/04/15 03:36:32;;;;;;;3.13;1.50;;;1.60;98.90;2.00;93003.00;;;;7399866;19;20144;-75
2023/04/15 03:39:06;;;;;;;5.13;2.07;;;1.60;90.30;2.10;93021.00;;;;7401054;19;20121;-75
2023/04/15 03:41:33;;;;;;;7.37;1.80;;;1.70;99.90;2.10;93040.00;;;;7400144;19;20608;-76
2023/04/15 03:44:07;;;;;;;3.63;1.80;;;1.70;70.00;2.10;93017.00;;;;7400327;19;20153;-76
2023/04/15 03:46:41;;;;;;;5.70;1.50;;;1.70;48.70;2.20;93044.00;;;;7398321;19;20530;-76
2023/04/15 03:49:08;;;;;;;6.13;1.53;;;1.70;36.90;2.00;93050.00;;;;7401100;19;20146;-76
2023/04/15 03:51:42;;;;;;;5.67;1.80;;;1.70;28.40;2.10;93042.00;;;;7402198;19;20157;-75
2023/04/15 03:54:16;;;;;;;3.27;1.40;;;1.70;76.70;1.90;93045.00;;;;7401542;19;20493;-76
2023/04/15 03:56:50;;;;;;;7.57;1.93;;;1.60;54.80;2.10;93048.00;;;;7400204;19;20139;-76
2023/04/15 03:59:24;;;;;;;5.13;1.90;;;1.60;99.90;2.10;93037.00;;;;7397693;19;20194;-75
2023/04/15 04:02:05;;;;;;;6.87;2.13;;;1.70;99.90;2.20;93047.00;;;;7396863;19;20190;-75
2023/04/15 04:04:39;;;;;;;3.43;2.00;;;1.70;88.00;2.20;93015.00;;;;7399873;19;20495;-75
2023/04/15 04:07:17;;;;;;;5.83;1.80;;;1.80;42.60;2.40;93039.00;;;;7402045;19;20612;-76
2023/04/15 04:09:44;;;;;;;6.00;1.97;;;1.80;33.60;2.50;93036.00;;;;7399572;19;20129;-76
2023/04/15 04:12:13;;;;;;;5.97;2.40;;;1.80;38.70;2.50;93014.00;;;;7400450;19;20168;-76
2023/04/15 04:14:47;;;;;;;3.30;1.70;;;1.90;10.20;2.40;93003.00;;;;7399516;19;20604;-76
2023/04/15 04:17:14;;;;;;;4.93;1.70;;;1.90;1.00;2.30;93021.00;;;;7399917;19;20145;-75
2023/04/15 04:19:48;;;;;;;4.60;1.80;;;1.80;1.00;2.20;93030.00;;;;7400966;19;20132;-76
2023/04/15 04:22:23;;;;;;;10.30;1.97;;;1.80;29.90;2.30;93032.00;;;;7400816;19;20595;-75
2023/04/15 04:24:58;;;;;;;10.90;2.60;;;1.80;62.60;2.10;93038.00;;;;7399243;19;20136;-74
2023/04/15 04:27:25;;;;;;;4.33;1.50;;;1.70;73.00;2.20;93018.00;;;;7399552;19;20132;-74
2023/04/15 04:29:59;;;;;;;6.97;2.13;;;1.70;99.90;2.30;93043.00;;;;7393756;19;20165;-74
2023/04/15 04:32:27;;;;;;;6.27;1.93;;;1.80;99.90;2.40;93040.00;;;;7397522;19;20620;-74
2023/04/15 04:35:00;;;;;;;5.93;1.80;;;1.80;17.40;2.70;93039.00;;;;7394718;19;20133;-74
2023/04/15 04:37:34;;;;;;;3.80;1.57;;;1.90;7.10;2.60;93031.00;;;;7398035;19;20495;-74
2023/04/15 04:40:09;;;;;;;5.77;1.80;;;2.00;1.00;2.60;93043.00;;;;7395056;19;20801;-74
2023/04/15 04:42:36;;;;;;;4.57;1.83;;;2.00;1.00;2.90;93039.00;;;;7393210;19;20156;-74
2023/04/15 04:45:11;;;;;;;10.93;1.67;;;2.10;1.00;2.70;93045.00;;;;7397014;19;20162;-74
2023/04/15 04:47:38;;;;;;;9.47;2.57;;;2.20;1.00;2.80;93035.00;;;;7397156;19;20148;-74
2023/04/15 04:50:12;;;;;;;10.73;2.23;;;2.20;1.00;2.80;93050.00;;;;7397680;19;20155;-74
2023/04/15 04:52:39;;;;;;;8.30;2.10;;;2.20;1.00;2.80;93041.00;;;;7397452;19;20141;-74
2023/04/15 04:55:13;;;;;;;4.13;1.83;;;2.20;1.00;2.90;93025.00;;;;7397865;19;20135;-74
2023/04/15 04:57:40;;;;;;;3.80;1.90;;;2.20;1.00;2.80;93020.00;;;;7399046;19;20137;-73
2023/04/15 05:00:21;;;;;;;7.40;2.47;;;2.30;1.00;2.90;93027.00;;;;7396956;19;20483;-74
2023/04/15 05:02:55;;;;;;;5.07;1.90;;;2.40;1.00;2.90;93047.00;;;;7397666;19;20144;-74
2023/04/15 05:05:29;;;;;;;5.40;1.80;;;2.40;1.00;3.20;93027.00;;;;7391999;19;20140;-74
2023/04/15 05:07:56;;;;;;;5.37;2.03;;;2.50;1.00;3.20;93041.00;;;;7394293;19;20140;-74
2023/04/15 05:10:30;;;;;;;4.80;2.17;;;2.50;1.00;3.20;93051.00;;;;7398461;19;20140;-75
2023/04/15 05:12:57;;;;;;;6.13;2.43;;;2.60;1.00;3.50;93044.00;;;;7396641;19;20129;-74
2023/04/15 05:15:32;;;;;;;8.00;2.10;;;2.70;1.00;3.90;93046.00;;;;7398667;19;20161;-75
2023/04/15 05:18:05;;;;;;;11.67;2.47;;;2.90;1.00;4.10;93040.00;;;;7396220;19;20140;-75
2023/04/15 05:20:32;;;;;;;5.87;1.83;;;3.10;99.90;4.00;93038.00;;;;7396202;19;20208;-75
2023/04/15 05:23:06;;;;;;;7.37;2.07;;;3.30;99.90;4.10;93052.00;;;;7398302;19;20125;-75
2023/04/15 05:25:42;;;;;;;6.73;2.00;;;3.40;99.90;4.30;93058.00;;;;7394737;19;20136;-75
2023/04/15 05:28:17;;;;;;;6.63;1.90;;;3.60;99.90;4.40;93054.00;;;;7398173;19;20137;-75
2023/04/15 05:30:51;;;;;;;5.77;2.00;;;3.60;99.90;4.80;93030.00;;;;7397864;19;20152;-75
2023/04/15 05:33:26;;;;;;;3.20;1.60;;;3.90;99.90;4.80;93050.00;;;;7398110;19;20201;-75
2023/04/15 05:36:00;;;;;;;3.43;1.50;;;4.00;99.90;4.90;93041.00;;;;7396442;19;20136;-75
2023/04/15 05:38:27;;;;;;;5.43;1.77;;;4.20;99.90;4.90;93054.00;;;;7395957;19;20623;-75
2023/04/15 05:41:01;;;;;;;6.07;1.80;;;4.30;99.90;5.30;93059.00;;;;7397172;19;20144;-75
2023/04/15 05:43:29;;;;;;;4.17;1.70;;;4.40;99.90;5.40;93054.00;;;;7393369;19;20608;-75
2023/04/15 05:46:03;;;;;;;3.37;1.70;;;4.50;99.90;5.30;93056.00;;;;7394461;19;20140;-75
2023/04/15 05:48:37;;;;;;;6.77;1.80;;;4.70;99.90;5.30;93047.00;;;;7395329;19;20189;-75
2023/04/15 05:51:11;;;;;;;8.10;2.07;;;4.70;99.90;5.40;93055.00;;;;7395988;19;20142;-75
2023/04/15 05:53:45;;;;;;;3.17;1.50;;;4.80;99.90;5.60;93045.00;;;;7393094;19;20129;-76
2023/04/15 05:56:19;;;;;;;5.10;1.40;;;4.90;99.90;5.70;93059.00;;;;7392551;19;20137;-75
2023/04/15 05:58:53;;;;;;;7.63;1.90;;;4.90;99.90;5.80;93037.00;;;;7392799;19;20141;-75
2023/04/15 06:01:34;;;;;;;4.10;1.70;;;5.00;99.90;5.90;93048.00;;;;7357908;19;20180;-75
2023/04/15 06:04:08;;;;;;;3.10;1.43;;;5.10;99.90;6.50;93067.00;;;;7376654;19;20137;-74
2023/04/15 06:06:47;;;;;;;2.93;1.50;;;5.30;39.20;6.80;93045.00;;;;7376204;19;20212;-74
2023/04/15 06:09:15;;;;;;;5.63;1.90;;;5.50;55.00;7.10;93039.00;;;;7376864;19;20195;-74
2023/04/15 06:11:51;;;;;;;4.43;1.40;;;5.80;35.90;7.30;93064.00;;;;7377539;19;20153;-74
2023/04/15 06:14:25;;;;;;;6.80;1.93;;;6.00;6.30;7.30;93059.00;;;;7377015;19;20144;-74
2023/04/15 06:16:59;;;;;;;10.50;1.80;;;6.20;1.00;7.10;93075.00;;;;7377474;19;20499;-74
2023/04/15 06:19:35;;;;;;;5.80;1.40;;;6.30;1.00;6.90;93061.00;;;;7378855;19;20454;-75
2023/04/15 06:22:09;;;;;;;4.00;1.60;;;6.30;1.00;7.40;93053.00;;;;7378707;19;20129;-74
2023/04/15 06:24:43;;;;;;;3.37;1.60;;;6.40;1.00;7.80;93073.00;;;;7383367;19;20124;-74
2023/04/15 06:27:18;;;;;;;4.33;1.90;;;6.50;1.00;8.30;93079.00;;;;7383558;19;20223;-74
2023/04/15 06:29:45;;;;;;;6.03;1.83;;;6.80;1.00;8.90;93055.00;;;;7383155;19;20153;-74
2023/04/15 06:32:13;;;;;;;5.53;2.10;;;7.00;1.00;9.40;93058.00;;;;7383152;19;20512;-75
2023/04/15 06:34:46;;;;;;;6.13;1.57;;;7.20;1.00;10.20;93073.00;;;;7383552;19;20133;-74
2023/04/15 06:37:15;;;;;;;6.57;1.73;;;7.50;1.00;10.50;93065.00;;;;7385632;19;20136;-75
2023/04/15 06:39:49;;;;;;;7.13;2.00;;;7.80;1.00;11.00;93049.00;;;;7382231;19;20448;-74
2023/04/15 06:42:17;;;;;;;6.13;1.75;;;8.10;1.00;11.20;93054.00;;;;7375644;19;20920;-75
2023/04/15 06:44:52;;;;;;;5.10;1.58;;;8.40;1.00;11.00;93058.00;;;;7383230;19;20183;-75
2023/04/15 06:47:19;;;;;;;4.00;1.45;;;8.60;1.00;11.50;93075.00;;;;7383442;19;20160;-74
2023/04/15 06:49:47;;;;;;;9.15;1.70;;;8.80;1.00;10.70;93056.00;;;;7380952;19;20170;-74
2023/04/15 06:52:27;;;;;;;3.72;1.38;;;9.00;1.00;11.00;93074.00;;;;7383463;19;20486;-75
2023/04/15 06:54:55;;;;;;;3.58;1.48;;;9.10;1.00;11.20;93051.00;;;;7382900;19;20152;-74
2023/04/15 06:57:30;;;;;;;5.55;1.30;;;9.20;1.00;11.20;93066.00;;;;7384044;19;20172;-74
2023/04/15 07:00:02;;;;;;;4.05;1.27;;;9.50;1.00;11.70;93073.00;;;;7382649;19;20125;-74
2023/04/15 07:02:43;;;;;;;2.88;1.60;;;9.90;1.00;12.40;93073.00;;;;7382775;19;20191;-75
2023/04/15 07:05:17;;;;;;;4.93;1.45;;;10.20;1.00;12.30;93068.00;;;;7383965;19;20133;-74
2023/04/15 07:07:51;;;;;;;4.32;1.58;;;10.50;1.00;12.40;93059.00;;;;7383587;19;20133;-74
2023/04/15 07:10:19;;;;;;;4.30;1.45;;;10.60;1.00;12.30;93064.00;;;;7383278;19;20173;-75
2023/04/15 07:12:53;;;;;;;2.40;1.40;;;10.80;1.00;12.20;93077.00;;;;7382381;19;20136;-74
2023/04/15 07:15:21;;;;;;;3.53;1.17;;;10.80;1.00;12.20;93074.00;;;;7381868;19;20142;-75
2023/04/15 07:17:55;;;;;;;5.85;1.60;;;10.90;1.00;12.00;93071.00;;;;7383779;19;20151;-75
2023/04/15 07:20:22;;;;;;;2.15;1.30;;;11.00;1.00;12.00;93057.00;;;;7382771;19;20546;-74
2023/04/15 07:22:56;;;;;;;5.03;1.92;;;11.10;1.00;12.00;93068.00;;;;7382206;19;20147;-75
2023/04/15 07:25:25;;;;;;;2.83;1.48;;;11.20;1.00;11.80;93076.00;;;;7382338;19;20191;-74
2023/04/15 07:28:01;;;;;;;5.65;1.80;;;11.10;1.00;11.80;93065.00;;;;7383775;19;20129;-74
2023/04/15 07:30:29;;;;;;;5.55;1.80;;;11.00;1.00;12.10;93083.00;;;;7384090;19;20149;-75
2023/04/15 07:33:04;;;;;;;5.15;1.95;;;10.90;1.00;11.60;93071.00;;;;7384721;19;20579;-75
2023/04/15 07:35:32;;;;;;;7.78;1.55;;;10.90;1.00;11.70;93057.00;;;;7382334;19;20152;-75
2023/04/15 07:37:59;;;;;;;5.32;1.30;;;11.00;1.00;12.10;93079.00;;;;7381983;19;20192;-75
2023/04/15 07:40:34;;;;;;;4.72;1.33;;;11.10;1.00;12.40;93075.00;;;;7383080;19;20583;-75
2023/04/15 07:43:02;;;;;;;3.20;1.70;;;11.30;1.00;12.10;93068.00;;;;7378960;19;20145;-75
2023/04/15 07:45:36;;;;;;;5.65;2.28;;;11.50;1.00;12.60;93093.00;;;;7381852;19;20151;-75
2023/04/15 07:48:05;;;;;;;3.25;1.30;;;11.50;1.00;12.70;93087.00;;;;7381757;19;20228;-74
2023/04/15 07:50:39;;;;;;;5.07;1.30;;;11.40;1.00;13.00;93092.00;;;;7382680;19;20128;-73
2023/04/15 07:53:14;;;;;;;5.03;1.88;;;11.50;1.00;13.10;93074.00;;;;7383276;19;20136;-73
2023/04/15 07:55:49;;;;;;;5.00;1.65;;;11.70;1.00;13.00;93089.00;;;;7380781;19;20124;-73
2023/04/15 07:58:16;;;;;;;4.53;1.60;;;11.80;1.00;13.30;93081.00;;;;7381992;19;20175;-73
2023/04/15 08:01:03;;;;;;;4.18;1.63;;;11.80;1.00;13.10;93086.00;;;;7381516;19;20188;-73
2023/04/15 08:03:38;;;;;;;4.50;1.52;;;11.90;1.00;13.50;93078.00;;;;7379439;19;20216;-72
2023/04/15 08:06:11;;;;;;;2.95;1.45;;;11.90;1.00;13.70;93075.00;;;;7381177;19;20478;-72
2023/04/15 08:08:39;;;;;;;3.53;1.83;;;12.00;1.00;14.20;93074.00;;;;7382347;19;20132;-72
2023/04/15 08:11:13;;;;;;;5.20;1.60;;;12.20;1.00;14.90;93080.00;;;;7382973;19;20136;-73
2023/04/15 08:13:42;;;;;;;3.95;1.80;;;12.60;1.00;15.10;93064.00;;;;7380195;19;20141;-73
2023/04/15 08:16:19;;;;;;;3.22;1.80;;;12.90;1.00;15.30;93084.00;;;;7382947;19;20646;-73
2023/04/15 08:18:49;;;;;;;5.20;1.63;;;13.00;1.00;15.00;93084.00;;;;7381387;19;20131;-73
2023/04/15 08:21:24;;;;;;;4.80;1.50;;;12.90;1.00;14.30;93082.00;;;;7382157;19;20165;-73
2023/04/15 08:23:53;;;;;;;2.83;1.30;;;12.90;1.00;13.70;93081.00;;;;7380949;19;20155;-73
2023/04/15 08:26:27;;;;;;;5.38;1.80;;;12.90;99.90;14.40;93080.00;;;;7382963;19;20209;-72
2023/04/15 08:28:55;;;;;;;4.15;1.83;;;13.20;1.00;14.20;93083.00;;;;7381526;19;20714;-72
2023/04/15 08:31:22;;;;;;;2.28;1.42;;;13.30;99.90;14.50;93090.00;;;;7382121;19;20666;-73
2023/04/15 08:33:58;;;;;;;5.53;1.70;;;13.50;1.00;14.90;93093.00;;;;7381477;19;20457;-72
2023/04/15 08:36:25;;;;;;;4.78;1.83;;;13.60;99.90;14.10;93099.00;;;;7380751;19;20153;-73
2023/04/15 08:39:00;;;;;;;3.58;1.42;;;13.30;99.90;14.50;93083.00;;;;7381921;19;20124;-72
2023/04/15 08:42:02;;;;;;;3.28;1.73;;;13.40;1.00;13.90;93109.00;;;;7380346;19;20494;-73
2023/04/15 08:44:37;;;;;;;4.63;1.67;;;13.20;1.00;14.30;93109.00;;;;7380561;19;20587;-74
2023/04/15 08:47:13;;;;;;;3.83;1.27;;;13.10;1.00;14.20;93116.00;;;;7379954;19;20211;-73
2023/04/15 08:49:43;;;;;;;5.25;1.80;;;13.10;1.00;13.70;93110.00;;;;7380778;19;20136;-74
2023/04/15 08:52:16;;;;;;;3.47;1.52;;;13.20;1.00;13.90;93112.00;;;;7382508;19;20153;-72
2023/04/15 08:54:44;;;;;;;3.78;1.83;;;13.00;1.00;14.00;93105.00;;;;7377220;19;20140;-75
2023/04/15 08:57:19;;;;;;;5.05;1.58;;;12.80;1.00;14.30;93119.00;;;;7381138;19;20162;-72
2023/04/15 08:59:47;;;;;;;3.33;1.77;;;13.00;1.00;14.40;93106.00;;;;7380132;19;20221;-72
2023/04/15 09:02:28;;;;;;;6.90;1.60;;;12.90;1.00;14.00;93103.00;;;;7376283;19;20180;-73
2023/04/15 09:04:55;;;;;;;2.22;1.60;;;12.80;1.00;14.30;93117.00;;;;7377676;19;20228;-74
2023/04/15 09:07:33;;;;;;;6.75;1.75;;;12.70;1.00;13.40;93119.00;;;;7376988;19;20550;-73
2023/04/15 09:10:07;;;;;;;6.05;1.70;;;12.90;1.00;14.10;93124.00;;;;7378023;19;20160;-73
2023/04/15 09:12:37;;;;;;;3.78;1.58;;;12.90;1.00;14.10;93126.00;;;;7377690;19;20508;-73
2023/04/15 09:15:11;;;;;;;3.50;1.60;;;12.90;1.00;14.20;93137.00;;;;7375978;19;20141;-75
2023/04/15 09:17:46;;;;;;;4.85;1.77;;;13.10;1.00;13.70;93136.00;;;;7377218;19;20136;-73
2023/04/15 09:20:17;;;;;;;7.07;1.65;;;13.10;99.90;13.80;93139.00;;;;7377268;19;23441;-75
2023/04/15 09:22:52;;;;;;;4.65;1.90;;;13.10;1.00;14.50;93143.00;;;;7376282;19;20153;-73
2023/04/15 09:25:28;;;;;;;4.80;1.63;;;13.20;1.00;14.00;93137.00;;;;7376921;19;20499;-73
2023/04/15 09:28:03;;;;;;;2.65;1.73;;;13.10;1.00;14.10;93140.00;;;;7377087;19;20163;-72
2023/04/15 09:30:31;;;;;;;4.05;1.70;;;13.20;99.90;13.40;93130.00;;;;7376992;19;20537;-73
2023/04/15 09:33:09;;;;;;;2.92;1.63;;;13.50;1.00;13.70;93131.00;;;;7377258;19;20148;-73
2023/04/15 09:35:37;;;;;;;2.70;1.40;;;13.60;1.00;13.50;93135.00;;;;7376923;19;20160;-75
2023/04/15 09:38:11;;;;;;;4.82;1.77;;;13.60;1.00;14.00;93135.00;;;;7376749;19;20156;-73
2023/04/15 09:40:41;;;;;;;5.45;1.80;;;13.70;99.90;14.70;93134.00;;;;7376580;19;20152;-73
2023/04/15 09:43:16;;;;;;;3.45;1.80;;;13.80;99.90;15.70;93125.00;;;;7371560;19;20152;-72
2023/04/15 09:45:52;;;;;;;5.03;1.70;;;14.10;1.00;15.00;93146.00;;;;7375592;19;20475;-73
2023/04/15 09:48:27;;;;;;;6.70;1.80;;;14.10;1.00;15.50;93124.00;;;;7377862;19;20129;-75
2023/04/15 09:50:59;;;;;;;3.30;1.83;;;14.20;1.00;15.90;93140.00;;;;7377541;19;20493;-73
2023/04/15 09:53:37;;;;;;;2.97;1.45;;;14.60;1.00;15.70;93154.00;;;;7371753;19;20569;-73
2023/04/15 09:56:06;;;;;;;3.65;1.50;;;14.60;99.90;14.70;93137.00;;;;7372735;19;20754;-73
2023/04/15 09:58:42;;;;;;;5.10;1.75;;;14.90;99.90;15.00;93152.00;;;;7381361;19;20156;-73
2023/04/15 10:01:16;;;;;;;3.47;1.67;;;15.00;99.90;13.00;93161.00;;;;6883662;19;9819479;-73
2023/04/15 10:03:57;;;;;;;2.97;1.67;;;14.70;1.00;13.00;93159.00;;;;7384860;19;20270;-76
2023/04/15 10:06:35;;;;;;;5.82;1.80;;;14.40;1.00;14.40;93157.00;;;;7381398;19;20166;-73
2023/04/15 10:09:09;;;;;;;3.42;1.88;;;14.30;99.90;15.00;93153.00;;;;7384301;19;20155;-74
2023/04/15 10:11:44;;;;;;;2.85;1.60;;;14.50;1.00;15.50;93151.00;;;;7383858;19;20136;-73
2023/04/15 10:14:15;;;;;;;3.55;1.60;;;15.10;1.00;14.60;93176.00;;;;7384766;19;20512;-74
2023/04/15 10:16:50;;;;;;;4.35;1.60;;;15.20;1.00;14.50;93166.00;;;;7385906;19;21090;-74
2023/04/15 10:19:30;;;;;;;4.72;1.80;;;14.80;1.00;15.30;93163.00;;;;7384716;19;20161;-72
2023/04/15 10:21:59;;;;;;;3.90;1.58;;;14.50;1.00;14.80;93164.00;;;;7384115;19;20125;-73
2023/04/15 10:24:33;;;;;;;6.68;1.73;;;14.40;1.00;15.10;93171.00;;;;7384653;19;20175;-75
2023/04/15 10:27:08;;;;;;;3.90;1.63;;;14.20;99.90;14.70;93178.00;;;;7386538;19;20147;-74
2023/04/15 10:29:36;;;;;;;5.25;1.80;;;14.30;99.90;12.60;93181.00;;;;7385977;19;20129;-73
2023/04/15 10:32:11;;;;;;;4.47;1.63;;;14.00;99.90;12.50;93176.00;;;;7384052;19;20619;-74
2023/04/15 10:34:48;;;;;;;3.38;1.52;;;13.70;99.90;13.70;93161.00;;;;7384830;19;20263;-73
2023/04/15 10:37:35;;;;;;;4.57;1.80;;;13.90;1.00;14.70;93178.00;;;;7383464;19;20172;-73
2023/04/15 10:40:27;;;;;;;2.70;1.70;;;13.90;1.00;14.30;93195.00;;;;7383426;19;20168;-74
2023/04/15 10:43:02;;;;;;;4.47;2.00;;;14.00;1.00;13.90;93198.00;;;;7377760;19;20993;-74
2023/04/15 10:45:37;;;;;;;3.20;1.67;;;14.10;1.00;13.80;93198.00;;;;7383447;19;20128;-73
2023/04/15 10:48:15;;;;;;;4.13;1.95;;;14.30;1.00;13.60;93199.00;;;;7384166;19;20166;-73
2023/04/15 10:50:57;;;;;;;3.47;1.73;;;14.30;1.00;13.70;93184.00;;;;7383503;19;20614;-75
2023/04/15 10:53:30;;;;;;;4.80;2.10;;;14.20;1.00;13.60;93190.00;;;;7383140;19;20169;-73
2023/04/15 10:56:05;;;;;;;7.00;2.25;;;14.20;1.00;13.50;93203.00;;;;7382572;19;20148;-75
2023/04/15 10:58:44;;;;;;;2.67;1.85;;;14.50;1.00;14.40;93201.00;;;;7385024;19;20160;-76
2023/04/15 11:01:12;;;;;;;2.70;1.77;;;14.70;1.00;14.00;93213.00;;;;7381911;19;20180;-73
2023/04/15 11:03:54;;;;;;;6.38;1.80;;;14.40;1.00;13.40;93219.00;;;;7382972;19;20188;-76
2023/04/15 11:06:44;;;;;;;6.78;2.65;;;14.30;1.00;13.00;93206.00;;;;7382555;19;20208;-75
2023/04/15 11:09:32;;;;;;;4.18;2.05;;;13.50;1.00;12.90;93208.00;;;;7384614;19;21014;-76
2023/04/15 11:12:09;;;;;;;3.67;1.85;;;13.40;1.00;13.30;93209.00;;;;7383198;19;20149;-75
2023/04/15 11:14:46;;;;;;;3.95;2.10;;;13.50;1.00;14.00;93221.00;;;;7383137;19;20162;-73
2023/04/15 11:17:30;;;;;;;4.20;2.08;;;13.80;1.00;13.90;93206.00;;;;7382412;19;20617;-76
2023/04/15 11:20:06;;;;;;;3.80;1.95;;;13.70;1.00;12.60;93222.00;;;;7382268;19;20153;-76
2023/04/15 11:22:51;;;;;;;3.75;2.10;;;13.70;1.00;13.60;93220.00;;;;7383915;19;20132;-73
2023/04/15 11:25:40;;;;;;;5.18;2.03;;;13.90;1.00;14.80;93202.00;;;;7381247;19;20149;-74
2023/04/15 11:28:15;;;;;;;6.53;2.50;;;14.30;1.00;15.30;93212.00;;;;7381333;19;20164;-76
2023/04/15 11:30:49;;;;;;;6.13;2.08;;;14.30;1.00;14.10;93225.00;;;;7382936;19;20614;-75
2023/04/15 11:33:24;;;;;;;6.97;2.70;;;14.30;1.00;13.30;93227.00;;;;7382731;19;20152;-74